createdAt,value
2023-08-16T00:00:25.466Z,8.57
2023-08-16T00:05:27.157Z,7.57
2023-08-16T00:10:28.840Z,5.60
2023-08-16T00:15:30.609Z,5.00
2023-08-16T00:20:32.362Z,6.60
2023-08-16T00:25:34.043Z,7.00
2023-08-16T00:30:35.759Z,5.78
2023-08-16T00:35:37.497Z,5.95
2023-08-16T00:40:39.187Z,6.10
2023-08-16T00:45:43.383Z,7.30
2023-08-16T00:50:46.317Z,6.65
2023-08-16T00:55:48.110Z,6.53
2023-08-16T01:00:50.133Z,5.30
2023-08-16T01:05:51.810Z,5.03
2023-08-16T01:10:56.018Z,5.72
2023-08-16T01:16:00.496Z,5.60
2023-08-16T01:21:02.549Z,4.65
2023-08-16T01:26:10.800Z,6.00
2023-08-16T01:31:12.773Z,8.65
2023-08-16T01:36:15.989Z,6.65
2023-08-16T01:41:28.646Z,5.80
2023-08-16T01:46:31.152Z,6.70
2023-08-16T01:51:33.106Z,6.45
2023-08-16T01:56:34.865Z,6.57
2023-08-16T02:01:36.642Z,5.28
2023-08-16T02:06:38.386Z,6.40
2023-08-16T02:11:40.053Z,6.18
2023-08-16T02:16:41.722Z,5.82
2023-08-16T02:21:43.631Z,6.47
2023-08-16T02:26:45.299Z,6.00
2023-08-16T02:31:46.975Z,6.07
2023-08-16T02:36:49.010Z,7.18
2023-08-16T02:41:54.780Z,4.47
2023-08-16T02:51:59.136Z,8.20
2023-08-16T02:57:00.949Z,8.23
2023-08-16T03:02:02.637Z,6.38
2023-08-16T03:07:04.533Z,5.75
2023-08-16T03:12:06.995Z,4.75
2023-08-16T03:17:08.751Z,4.30
2023-08-16T03:22:11.460Z,4.53
2023-08-16T03:27:13.350Z,4.53
2023-08-16T03:32:15.229Z,4.60
2023-08-16T03:37:17.158Z,4.40
2023-08-16T03:42:20.944Z,4.18
2023-08-16T03:47:25.626Z,4.90
2023-08-16T03:52:28.802Z,3.47
2023-08-16T03:57:30.507Z,4.75
2023-08-16T04:02:32.161Z,3.97
2023-08-16T04:07:34.067Z,4.47
2023-08-16T04:12:37.835Z,4.88
2023-08-16T04:17:40.242Z,5.38
2023-08-16T04:22:42.098Z,5.40
2023-08-16T04:27:44.272Z,5.38
2023-08-16T04:32:46.018Z,6.75
2023-08-16T04:37:47.820Z,6.65
2023-08-16T04:42:49.721Z,5.68
2023-08-16T04:47:51.455Z,5.38
2023-08-16T04:52:54.287Z,4.07
2023-08-16T04:57:59.309Z,4.88
2023-08-16T05:03:01.233Z,4.72
2023-08-16T05:08:05.260Z,4.57
2023-08-16T05:13:06.950Z,4.55
2023-08-16T05:18:08.682Z,5.45
2023-08-16T05:23:10.470Z,4.55
2023-08-16T05:28:12.330Z,5.55
2023-08-16T05:33:14.113Z,3.28
2023-08-16T05:38:15.822Z,4.75
2023-08-16T05:43:17.463Z,3.97
2023-08-16T05:48:19.171Z,4.10
2023-08-16T05:53:20.858Z,3.92
2023-08-16T05:58:22.544Z,4.22
2023-08-16T06:03:24.298Z,3.90
2023-08-16T06:08:26.011Z,4.18
2023-08-16T06:13:27.691Z,4.93
2023-08-16T06:18:29.461Z,3.60
2023-08-16T06:23:31.137Z,4.13
2023-08-16T06:28:32.837Z,5.40
2023-08-16T06:33:34.564Z,5.10
2023-08-16T06:38:36.262Z,5.10
2023-08-16T06:43:37.932Z,4.43
2023-08-16T06:48:39.703Z,5.22
2023-08-16T06:53:43.580Z,9.32
2023-08-16T06:58:45.302Z,5.68
2023-08-16T07:03:49.350Z,4.82
2023-08-16T07:08:51.672Z,4.13
2023-08-16T07:13:53.578Z,7.78
2023-08-16T07:18:55.260Z,5.68
2023-08-16T07:23:57.051Z,4.10
2023-08-16T07:28:58.721Z,4.13
2023-08-16T07:34:00.397Z,4.47
2023-08-16T07:39:02.210Z,6.15
2023-08-16T07:44:04.415Z,4.65
2023-08-16T07:49:06.209Z,4.75
2023-08-16T07:54:07.917Z,4.40
2023-08-16T07:59:09.661Z,5.30
2023-08-16T08:04:11.382Z,5.00
2023-08-16T08:09:13.173Z,6.00
2023-08-16T08:14:14.928Z,5.00
2023-08-16T08:19:16.615Z,5.50
2023-08-16T08:24:18.791Z,4.80
2023-08-16T08:29:21.642Z,5.60
2023-08-16T08:34:25.161Z,4.22
2023-08-16T08:39:28.254Z,5.30
2023-08-16T08:44:30.131Z,5.80
2023-08-16T08:49:31.816Z,5.55
2023-08-16T08:54:33.633Z,4.70
2023-08-16T08:59:35.683Z,4.95
2023-08-16T09:04:37.910Z,4.85
2023-08-16T09:09:39.563Z,6.25
2023-08-16T09:14:41.263Z,5.18
2023-08-16T09:19:46.210Z,5.38
2023-08-16T09:24:49.864Z,5.00
2023-08-16T09:29:55.224Z,6.45
2023-08-16T09:34:57.629Z,6.03
2023-08-16T09:40:00.083Z,4.53
2023-08-16T09:45:02.440Z,4.15
2023-08-16T09:50:07.620Z,4.90
2023-08-16T09:55:10.368Z,4.75
2023-08-16T10:00:12.959Z,7.25
2023-08-16T10:10:22.231Z,4.45
2023-08-16T10:15:25.077Z,5.00
2023-08-16T10:20:28.011Z,5.40
2023-08-16T10:25:37.833Z,5.03
2023-08-16T10:31:12.369Z,4.65
2023-08-16T10:36:08.297Z,4.82
2023-08-16T10:41:15.215Z,5.15
2023-08-16T10:46:30.047Z,4.78
2023-08-16T10:51:31.892Z,4.32
2023-08-16T10:56:45.607Z,5.05
2023-08-16T11:01:49.505Z,5.90
2023-08-16T11:07:02.638Z,5.32
2023-08-16T11:12:05.200Z,5.72
2023-08-16T11:17:06.916Z,4.60
2023-08-16T11:22:11.744Z,5.85
2023-08-16T11:27:19.893Z,4.80
2023-08-16T11:32:38.532Z,6.00
2023-08-16T11:37:42.633Z,4.93
2023-08-16T11:42:44.487Z,6.18
2023-08-16T11:47:50.249Z,6.88
2023-08-16T11:53:02.846Z,4.57
2023-08-16T11:58:06.720Z,5.38
2023-08-16T12:03:10.569Z,5.78
2023-08-16T12:08:13.643Z,5.70
2023-08-16T12:13:15.994Z,5.30
2023-08-16T12:18:21.610Z,6.72
2023-08-16T12:23:23.612Z,5.78
2023-08-16T12:28:25.251Z,5.72
2023-08-16T12:33:27.042Z,5.05
2023-08-16T12:38:31.536Z,4.93
2023-08-16T12:48:41.359Z,5.10
2023-08-16T12:53:44.326Z,5.05
2023-08-16T12:58:57.000Z,6.45
2023-08-16T13:04:00.921Z,5.63
2023-08-16T13:09:04.422Z,5.60
2023-08-16T13:14:11.510Z,5.28
2023-08-16T13:19:24.699Z,5.75
2023-08-16T13:45:17.992Z,4.35
2023-08-16T13:50:21.102Z,5.63
2023-08-16T13:55:22.826Z,5.53
2023-08-16T14:00:25.843Z,4.63
2023-08-16T14:05:27.899Z,4.82
2023-08-16T14:10:31.533Z,5.22
2023-08-16T14:15:33.780Z,5.85
2023-08-16T14:20:39.965Z,6.60
2023-08-16T14:25:52.159Z,5.30
2023-08-16T14:30:53.897Z,5.00
2023-08-16T14:35:58.127Z,5.60
2023-08-16T14:40:59.855Z,6.72
2023-08-16T14:46:01.726Z,6.55
2023-08-16T14:51:03.501Z,5.97
2023-08-16T14:56:05.235Z,5.75
2023-08-16T15:01:07.843Z,6.07
2023-08-16T15:06:09.900Z,6.45
2023-08-16T15:11:16.205Z,5.28
2023-08-16T15:16:18.009Z,5.47
2023-08-16T15:21:19.764Z,6.25
2023-08-16T15:26:22.336Z,5.97
2023-08-16T15:31:24.084Z,4.80
2023-08-16T15:36:25.852Z,6.65
2023-08-16T15:41:27.496Z,5.43
2023-08-16T15:46:29.246Z,5.88
2023-08-16T15:51:30.933Z,6.35
2023-08-16T15:56:32.595Z,6.28
2023-08-16T16:01:34.336Z,6.78
2023-08-16T16:06:36.102Z,6.65
2023-08-16T16:11:37.752Z,6.38
2023-08-16T16:16:46.564Z,7.35
2023-08-16T16:21:48.373Z,6.95
2023-08-16T16:26:50.023Z,6.55
2023-08-16T16:31:52.911Z,7.60
2023-08-16T16:36:54.783Z,7.40
2023-08-16T16:41:57.922Z,6.57
2023-08-16T16:47:03.924Z,8.15
2023-08-16T16:52:05.742Z,7.38
2023-08-16T16:57:07.433Z,6.57
2023-08-16T17:02:09.118Z,6.55
2023-08-16T17:07:10.790Z,6.05
2023-08-16T17:12:12.557Z,7.28
2023-08-16T17:17:14.238Z,6.50
2023-08-16T17:22:15.961Z,6.70
2023-08-16T17:27:17.654Z,8.02
2023-08-16T17:32:19.305Z,8.48
2023-08-16T17:37:21.852Z,8.43
2023-08-16T17:42:23.743Z,7.00
2023-08-16T17:47:27.059Z,8.52
2023-08-16T17:52:29.039Z,8.77
2023-08-16T17:57:30.768Z,9.18
2023-08-16T18:02:33.783Z,7.90
2023-08-16T18:07:35.560Z,9.48
2023-08-16T18:12:37.283Z,9.25
2023-08-16T18:17:38.946Z,10.00
2023-08-16T18:22:41.622Z,10.10
2023-08-16T18:27:43.244Z,9.40
2023-08-16T18:32:44.938Z,9.15
2023-08-16T18:37:46.783Z,9.73
2023-08-16T18:42:48.501Z,9.80
2023-08-16T18:47:50.331Z,9.18
2023-08-16T18:52:52.186Z,9.88
2023-08-16T18:57:53.974Z,8.70
2023-08-16T19:02:55.718Z,10.10
2023-08-16T19:07:57.376Z,9.25
2023-08-16T19:12:59.159Z,9.85
2023-08-16T19:18:01.172Z,9.70
2023-08-16T19:23:03.201Z,8.45
2023-08-16T19:28:05.195Z,9.50
2023-08-16T19:33:06.963Z,9.82
2023-08-16T19:38:08.612Z,11.55
2023-08-16T19:43:10.309Z,10.60
2023-08-16T19:48:12.004Z,8.00
2023-08-16T19:53:13.679Z,9.77
2023-08-16T19:58:15.309Z,10.02
2023-08-16T20:03:17.051Z,10.60
2023-08-16T20:08:18.767Z,11.98
2023-08-16T20:13:20.411Z,11.70
2023-08-16T20:18:22.100Z,10.15
2023-08-16T20:23:23.787Z,15.23
2023-08-16T20:28:25.659Z,24.70
2023-08-16T20:33:27.512Z,12.50
2023-08-16T20:38:29.240Z,14.25
2023-08-16T20:43:30.999Z,16.40
2023-08-16T20:48:32.782Z,11.25
2023-08-16T20:53:34.501Z,11.23
2023-08-16T20:58:36.185Z,10.85
2023-08-16T21:03:37.825Z,10.90
2023-08-16T21:08:39.512Z,7.85
2023-08-16T21:13:41.212Z,6.40
2023-08-16T21:18:43.048Z,7.82
2023-08-16T21:23:44.772Z,7.50
2023-08-16T21:28:46.436Z,8.40
2023-08-16T21:33:48.083Z,7.03
2023-08-16T21:38:49.816Z,8.45
2023-08-16T21:43:51.530Z,8.85
2023-08-16T21:48:53.240Z,8.20
2023-08-16T21:53:54.878Z,7.82
2023-08-16T21:58:57.028Z,6.90
2023-08-16T22:03:58.833Z,8.60
2023-08-16T22:09:00.538Z,7.65
2023-08-16T22:14:02.221Z,6.43
2023-08-16T22:19:04.285Z,7.32
2023-08-16T22:24:06.445Z,7.60
2023-08-16T22:29:08.182Z,6.05
2023-08-16T22:34:09.955Z,6.57
2023-08-16T22:39:11.586Z,6.97
2023-08-16T22:44:13.285Z,7.22
2023-08-16T22:49:15.068Z,6.93
2023-08-16T22:54:16.781Z,6.25
2023-08-16T22:59:22.716Z,7.80
2023-08-16T23:04:24.437Z,6.88
2023-08-16T23:09:26.185Z,7.57
2023-08-16T23:14:28.052Z,8.13
2023-08-16T23:19:29.763Z,6.18
2023-08-16T23:24:31.445Z,5.90
2023-08-16T23:29:33.188Z,7.78
2023-08-16T23:34:34.882Z,6.72
2023-08-16T23:39:37.048Z,9.00
2023-08-16T23:44:38.776Z,7.20
2023-08-16T23:49:40.468Z,7.50
2023-08-16T23:54:42.489Z,7.30
2023-08-16T23:59:46.864Z,8.57
